Time;durP1;ratioP1;P1;durP2;ratioP2;P2;SDS_P1;SDS_P2;PMS_P1;PMS_P2;Temp;Humidity;BMP_temperature;BMP_pressure;BME280_temperature;BME280_humidity;BME280_pressure;Samples;Min_cycle;Max_cycle;Signal;HPM_P1;HPM_P2
2022/04/11 00:02:17;;;;;;;;;;;;;;;3.43;100.00;98418.28;1606025;89;20892;-83
2022/04/11 00:04:43;;;;;;;;;;;;;;;3.43;100.00;98427.33;1605645;89;21047;-83
2022/04/11 00:07:09;;;;;;;;;;;;;;;3.40;100.00;98420.13;1604942;89;24401;-87
2022/04/11 00:09:35;;;;;;;;;;;;;;;3.39;100.00;98428.34;1605685;89;20325;-84
2022/04/11 00:12:02;;;;;;;;;;;;;;;3.41;100.00;98430.42;1606268;89;25005;-84
2022/04/11 00:14:28;;;;;;;;;;;;;;;3.41;100.00;98426.55;1605218;89;21985;-84
2022/04/11 00:16:53;;;;;;;;;;;;;;;3.41;100.00;98430.87;1606620;88;20991;-87
2022/04/11 00:19:19;;;;;;;;;;;;;;;3.44;100.00;98422.52;1605605;89;24424;-87
2022/04/11 00:21:46;;;;;;;;;;;;;;;3.45;100.00;98431.97;1605128;89;20533;-86
2022/04/11 00:24:12;;;;;;;;;;;;;;;3.46;100.00;98430.23;1606031;89;24919;-87
2022/04/11 00:26:37;;;;;;;;;;;;;;;3.46;100.00;98434.11;1605474;89;22046;-87
2022/04/11 00:29:03;;;;;;;;;;;;;;;3.46;100.00;98425.05;1604720;89;21030;-87
2022/04/11 00:31:29;;;;;;;;;;;;;;;3.46;100.00;98430.23;1605245;89;20337;-86
2022/04/11 00:33:56;;;;;;;;;;;;;;;3.46;100.00;98429.78;1605794;89;20244;-85
2022/04/11 00:36:22;;;;;;;;;;;;;;;3.47;100.00;98430.63;1605882;88;25014;-86
2022/04/11 00:38:48;;;;;;;;;;;;;;;3.46;100.00;98427.19;1605485;89;22128;-83
2022/04/11 00:41:14;;;;;;;;;;;;;;;3.44;100.00;98427.70;1604952;89;26073;-82
2022/04/11 00:43:41;;;;;;;;;;;;;;;3.48;100.00;98431.02;1606293;89;20967;-87
2022/04/11 00:46:12;;;;;;;;;;;;;;;3.47;100.00;98435.34;1604575;89;20541;-84
2022/04/11 00:48:40;;;;;;;;;;;;;;;3.46;100.00;98437.98;1607025;89;25856;-85
2022/04/11 00:51:09;;;;;;;;;;;;;;;3.47;100.00;98437.94;1604780;89;21941;-85
2022/04/11 00:53:41;;;;;;;;;;;;;;;3.47;100.00;98439.23;1603321;89;26065;-85
2022/04/11 00:56:09;;;;;;;;;;;;;;;3.49;100.00;98442.58;1604539;89;24534;-87
2022/04/11 00:58:35;;;;;;;;;;;;;;;3.51;100.00;98433.47;1604931;89;20488;-84
2022/04/11 01:01:10;;;;;;;;;;;;;;;3.52;100.00;98439.03;1605909;89;24987;-85
2022/04/11 01:03:36;;;;;;;;;;;;;;;3.53;100.00;98437.69;1606243;89;22037;-84
2022/04/11 01:06:03;;;;;;;;;;;;;;;3.53;100.00;98436.39;1603487;89;26183;-84
2022/04/11 01:08:29;;;;;;;;;;;;;;;3.53;100.00;98439.42;1604732;89;24650;-84
2022/04/11 01:10:55;;;;;;;;;;;;;;;3.53;100.00;98435.09;1606174;89;20231;-85
2022/04/11 01:13:21;;;;;;;;;;;;;;;3.54;100.00;98434.20;1605249;89;24933;-85
2022/04/11 01:15:57;;;;;;;;;;;;;;;3.55;100.00;98429.39;1605798;89;20852;-86
2022/04/11 01:18:23;;;;;;;;;;;;;;;3.55;100.00;98434.56;1605707;89;26030;-86
2022/04/11 01:20:49;;;;;;;;;;;;;;;3.55;100.00;98433.72;1606066;89;20432;-86
2022/04/11 01:23:15;;;;;;;;;;;;;;;3.55;100.00;98428.09;1606529;88;20561;-87
2022/04/11 01:25:42;;;;;;;;;;;;;;;3.55;100.00;98433.27;1605823;89;20828;-87
2022/04/11 01:28:09;;;;;;;;;;;;;;;3.56;100.00;98436.25;1605626;89;21926;-87
2022/04/11 01:30:35;;;;;;;;;;;;;;;3.58;100.00;98433.61;1604125;89;26074;-87
2022/04/11 01:33:03;;;;;;;;;;;;;;;3.59;100.00;98432.26;1605615;89;20338;-84
2022/04/11 01:35:28;;;;;;;;;;;;;;;3.60;100.00;98427.45;1602454;88;20318;-87
2022/04/11 01:37:54;;;;;;;;;;;;;;;3.60;100.00;98431.33;1618797;87;20265;-86
2022/04/11 01:40:21;;;;;;;;;;;;;;;3.65;100.00;98434.59;1630179;88;22289;-84
2022/04/11 01:42:47;;;;;;;;;;;;;;;3.70;100.00;98439.13;1629985;88;26838;-84
2022/04/11 01:45:13;;;;;;;;;;;;;;;3.71;100.00;98440.77;1629390;88;20281;-87
2022/04/11 01:47:42;;;;;;;;;;;;;;;3.73;100.00;98445.45;1630071;88;20233;-87
2022/04/11 01:50:08;;;;;;;;;;;;;;;3.74;100.00;98446.29;1629941;88;25105;-86
2022/04/11 01:52:35;;;;;;;;;;;;;;;3.72;100.00;98444.21;1630032;87;22080;-84
2022/04/11 01:55:04;;;;;;;;;;;;;;;3.69;100.00;98455.55;1629882;88;26674;-85
2022/04/11 01:57:36;;;;;;;;;;;;;;;3.67;100.00;98455.20;1628585;88;24430;-85
2022/04/11 02:00:03;;;;;;;;;;;;;;;3.66;100.00;98460.83;1629758;88;20332;-84
2022/04/11 02:02:29;;;;;;;;;;;;;;;3.63;100.00;98457.09;1630015;88;24975;-83
2022/04/11 02:04:55;;;;;;;;;;;;;;;3.63;100.00;98455.80;1630008;88;21972;-86
2022/04/11 02:07:21;;;;;;;;;;;;;;;3.64;100.00;98456.64;1629984;88;25983;-83
2022/04/11 02:09:47;;;;;;;;;;;;;;;3.62;100.00;98459.73;1630056;88;20257;-84
2022/04/11 02:12:13;;;;;;;;;;;;;;;3.58;100.00;98465.50;1630064;88;20294;-83
2022/04/11 02:14:39;;;;;;;;;;;;;;;3.56;100.00;98468.59;1629930;88;25031;-83
2022/04/11 02:17:04;;;;;;;;;;;;;;;3.55;100.00;98468.64;1630100;88;20229;-86
2022/04/11 02:19:31;;;;;;;;;;;;;;;3.49;100.00;98471.52;1629776;88;25995;-86
2022/04/11 02:21:57;;;;;;;;;;;;;;;3.43;100.00;98466.59;1630014;88;24420;-83
2022/04/11 02:24:22;;;;;;;;;;;;;;;3.35;100.00;98466.43;1629520;87;20415;-85
2022/04/11 02:26:48;;;;;;;;;;;;;;;3.32;100.00;98472.19;1628361;88;20269;-85
2022/04/11 02:29:14;;;;;;;;;;;;;;;3.28;100.00;98471.90;1630071;88;20843;-85
2022/04/11 02:31:40;;;;;;;;;;;;;;;3.25;100.00;98468.16;1629981;87;21083;-85
2022/04/11 02:34:06;;;;;;;;;;;;;;;3.23;100.00;98470.80;1629953;87;20368;-87
2022/04/11 02:36:32;;;;;;;;;;;;;;;3.19;100.00;98467.11;1605964;88;20301;-87
2022/04/11 02:39:02;;;;;;;;;;;;;;;3.20;100.00;98476.55;1637332;86;24943;-85
2022/04/11 02:41:27;;;;;;;;;;;;;;;3.20;100.00;98473.52;1635626;87;21991;-85
2022/04/11 02:43:53;;;;;;;;;;;;;;;3.19;100.00;98476.16;1636972;87;21156;-85
2022/04/11 02:46:21;;;;;;;;;;;;;;;3.19;100.00;98471.83;1635067;87;20298;-87
2022/04/11 02:48:47;;;;;;;;;;;;;;;3.16;100.00;98470.67;1638600;87;20272;-83
2022/04/11 02:51:13;;;;;;;;;;;;;;;3.15;100.00;98472.86;1636674;87;24989;-85
2022/04/11 02:53:39;;;;;;;;;;;;;;;3.13;100.00;98471.22;1636813;87;20869;-87
2022/04/11 02:56:06;;;;;;;;;;;;;;;3.12;100.00;98477.29;1638439;87;26039;-87
2022/04/11 02:58:32;;;;;;;;;;;;;;;3.09;100.00;98480.85;1637752;87;24389;-87
2022/04/11 03:01:00;;;;;;;;;;;;;;;3.08;100.00;98483.05;1635418;87;20276;-83
2022/04/11 03:03:26;;;;;;;;;;;;;;;3.09;100.00;98486.47;1636337;87;24989;-84
2022/04/11 03:05:52;;;;;;;;;;;;;;;3.08;100.00;98481.75;1635366;87;20841;-84
2022/04/11 03:08:18;;;;;;;;;;;;;;;3.07;100.00;98485.23;1637033;87;21403;-84
2022/04/11 03:10:46;;;;;;;;;;;;;;;3.08;100.00;98485.63;1636186;87;25360;-85
2022/04/11 03:13:12;;;;;;;;;;;;;;;3.10;100.00;98485.13;1636552;87;20345;-85
2022/04/11 03:15:38;;;;;;;;;;;;;;;3.13;100.00;98490.61;1639822;87;20725;-85
2022/04/11 03:18:04;;;;;;;;;;;;;;;3.14;100.00;98491.02;1638553;87;22027;-84
2022/04/11 03:20:30;;;;;;;;;;;;;;;3.15;100.00;98487.53;1637331;87;25960;-86
2022/04/11 03:22:58;;;;;;;;;;;;;;;3.18;100.00;98495.16;1636106;87;20872;-87
2022/04/11 03:25:24;;;;;;;;;;;;;;;3.20;100.00;98501.96;1636215;87;20494;-87
2022/04/11 03:27:50;;;;;;;;;;;;;;;3.24;100.00;98504.81;1633605;87;20264;-87
2022/04/11 03:30:16;;;;;;;;;;;;;;;3.26;100.00;98508.19;1637614;87;21939;-87
2022/04/11 03:32:51;;;;;;;;;;;;;;;3.27;100.00;98507.27;1638432;87;21122;-87
2022/04/11 03:35:17;;;;;;;;;;;;;;;3.28;100.00;98505.52;1638186;87;24521;-87
2022/04/11 03:37:43;;;;;;;;;;;;;;;3.30;100.00;98512.78;1634541;86;20247;-85
2022/04/11 03:40:12;;;;;;;;;;;;;;;3.32;100.00;98514.87;1635279;87;20286;-85
2022/04/11 03:42:38;;;;;;;;;;;;;;;3.34;100.00;98518.22;1635269;87;21992;-87
2022/04/11 03:45:05;;;;;;;;;;;;;;;3.34;100.00;98518.22;1634877;87;21031;-84
2022/04/11 03:47:32;;;;;;;;;;;;;;;3.33;100.00;98519.11;1635300;87;24456;-82
2022/04/11 03:49:58;;;;;;;;;;;;;;;3.33;100.00;98525.13;1635321;87;20194;-82
2022/04/11 03:52:24;;;;;;;;;;;;;;;3.33;100.00;98521.70;1635170;87;20211;-82
2022/04/11 03:54:49;;;;;;;;;;;;;;;3.33;100.00;98517.81;1634546;87;20346;-82
2022/04/11 03:57:15;;;;;;;;;;;;;;;3.35;100.00;98522.49;1635187;87;21105;-86
2022/04/11 03:59:41;;;;;;;;;;;;;;;3.35;100.00;98528.51;1635106;87;20245;-86
2022/04/11 04:02:07;;;;;;;;;;;;;;;3.33;100.00;98529.45;1635343;87;20292;-87
2022/04/11 04:04:34;;;;;;;;;;;;;;;3.33;100.00;98528.16;1634653;87;24961;-85
2022/04/11 04:07:00;;;;;;;;;;;;;;;3.33;100.00;98535.47;1635393;87;20845;-85
2022/04/11 04:09:25;;;;;;;;;;;;;;;3.32;100.00;98532.52;1635169;87;21032;-85
2022/04/11 04:11:52;;;;;;;;;;;;;;;3.34;100.00;98541.05;1635345;87;20336;-87
2022/04/11 04:14:18;;;;;;;;;;;;;;;3.33;100.00;98541.94;1635038;87;20739;-83
2022/04/11 04:16:44;;;;;;;;;;;;;;;3.33;100.00;98548.85;1635467;87;25041;-83
2022/04/11 04:19:10;;;;;;;;;;;;;;;3.31;100.00;98551.52;1635391;87;20937;-85
2022/04/11 04:21:36;;;;;;;;;;;;;;;3.34;100.00;98555.27;1635165;87;26672;-85
2022/04/11 04:24:02;;;;;;;;;;;;;;;3.34;100.00;98550.09;1633636;87;20341;-86
2022/04/11 04:26:29;;;;;;;;;;;;;;;3.34;100.00;98551.84;1635185;87;20224;-86
2022/04/11 04:28:55;;;;;;;;;;;;;;;3.32;100.00;98558.84;1635197;87;24905;-84
2022/04/11 04:31:21;;;;;;;;;;;;;;;3.32;100.00;98554.95;1635398;87;20281;-85
2022/04/11 04:33:46;;;;;;;;;;;;;;;3.31;100.00;98554.11;1635417;87;20980;-85
2022/04/11 04:36:14;;;;;;;;;;;;;;;3.34;100.00;98553.13;1634754;87;20958;-87
2022/04/11 04:38:40;;;;;;;;;;;;;;;3.38;100.00;98558.59;1638150;85;20227;-83
2022/04/11 04:41:07;;;;;;;;;;;;;;;3.40;100.00;98559.81;1638982;87;20768;-83
2022/04/11 04:43:36;;;;;;;;;;;;;;;3.45;100.00;98566.48;1617726;86;20294;-83
2022/04/11 04:46:02;;;;;;;;;;;;;;;3.45;100.00;98570.38;1632173;87;26045;-87
2022/04/11 04:48:29;;;;;;;;;;;;;;;3.46;100.00;98573.80;1635945;87;20841;-86
2022/04/11 04:50:56;;;;;;;;;;;;;;;3.42;100.00;98573.09;1637245;87;20288;-86
2022/04/11 04:53:28;;;;;;;;;;;;;;;3.42;100.00;98582.14;1636612;87;24973;-87
2022/04/11 04:55:54;;;;;;;;;;;;;;;3.42;100.00;98581.30;1635945;87;22013;-86
2022/04/11 04:58:29;;;;;;;;;;;;;;;3.43;100.00;98587.72;1636255;87;25990;-87
2022/04/11 05:00:57;;;;;;;;;;;;;;;3.47;100.00;98587.13;1635766;87;25144;-84
2022/04/11 05:03:23;;;;;;;;;;;;;;;3.51;100.00;98589.53;1637029;87;20399;-84
2022/04/11 05:05:49;;;;;;;;;;;;;;;3.61;100.00;98585.69;1638288;87;25018;-84
2022/04/11 05:08:15;;;;;;;;;;;;;;;3.72;100.00;98588.69;1639267;87;21947;-87
2022/04/11 05:10:41;;;;;;;;;;;;;;;3.76;100.00;98592.02;1636735;87;26055;-86
2022/04/11 05:13:07;;;;;;;;;;;;;;;3.77;100.00;98590.64;1639562;87;24649;-87
2022/04/11 05:15:33;;;;;;;;;;;;;;;3.87;100.00;98592.43;1637761;87;20782;-87
2022/04/11 05:17:59;;;;;;;;;;;;;;;3.91;100.00;98595.73;1638636;87;20789;-83
2022/04/11 05:20:25;;;;;;;;;;;;;;;3.96;100.00;98600.27;1638043;87;20932;-82
2022/04/11 05:22:51;;;;;;;;;;;;;;;4.00;100.00;98598.78;1637255;87;26022;-83
2022/04/11 05:25:17;;;;;;;;;;;;;;;4.05;100.00;98602.47;1636108;86;20231;-85
2022/04/11 05:27:42;;;;;;;;;;;;;;;4.16;100.00;98601.58;1635484;87;20848;-87
2022/04/11 05:30:09;;;;;;;;;;;;;;;4.27;100.00;98603.27;1637532;87;20243;-87
2022/04/11 05:32:35;;;;;;;;;;;;;;;4.37;100.00;98605.86;1640500;87;21997;-87
2022/04/11 05:35:01;;;;;;;;;;;;;;;4.41;100.00;98610.02;1635349;87;20983;-86
2022/04/11 05:37:28;;;;;;;;;;;;;;;4.45;100.00;98606.84;1636280;87;24595;-86
2022/04/11 05:39:53;;;;;;;;;;;;;;;4.42;100.00;98605.20;1634637;86;20765;-86
2022/04/11 05:42:20;;;;;;;;;;;;;;;4.41;100.00;98611.33;1637719;87;25015;-87
2022/04/11 05:44:46;;;;;;;;;;;;;;;4.42;100.00;98609.09;1638473;87;21999;-85
2022/04/11 05:47:12;;;;;;;;;;;;;;;4.43;100.00;98604.75;1638905;86;25984;-86
2022/04/11 05:49:39;;;;;;;;;;;;;;;4.38;100.00;98606.25;1636765;87;24484;-85
2022/04/11 05:52:06;;;;;;;;;;;;;;;4.34;100.00;98613.77;1636311;87;20230;-85
2022/04/11 05:54:34;;;;;;;;;;;;;;;4.28;100.00;98608.84;1640553;86;25049;-82
2022/04/11 05:57:03;;;;;;;;;;;;;;;4.27;100.00;98611.48;1639067;87;22764;-86
2022/04/11 05:59:31;;;;;;;;;;;;;;;4.29;100.00;98612.28;1636895;87;25989;-85
2022/04/11 06:01:57;;;;;;;;;;;;;;;4.32;100.00;98615.58;1639666;86;23996;-86
2022/04/11 06:04:23;;;;;;;;;;;;;;;4.34;100.00;98624.14;1639681;87;20868;-85
2022/04/11 06:06:49;;;;;;;;;;;;;;;4.36;100.00;98628.81;1637009;87;20239;-85
2022/04/11 06:09:15;;;;;;;;;;;;;;;4.41;100.00;98625.57;1639697;87;22752;-82
2022/04/11 06:11:41;;;;;;;;;;;;;;;4.45;100.00;98628.86;1633986;87;21154;-82
2022/04/11 06:14:07;;;;;;;;;;;;;;;4.48;100.00;98627.42;1635545;87;20980;-82
2022/04/11 06:16:33;;;;;;;;;;;;;;;4.53;100.00;98629.37;1635383;87;20730;-83
2022/04/11 06:18:59;;;;;;;;;;;;;;;4.54;100.00;98629.77;1636183;87;25066;-84
2022/04/11 06:21:25;;;;;;;;;;;;;;;4.54;100.00;98629.31;1638168;87;21954;-84
2022/04/11 06:23:51;;;;;;;;;;;;;;;4.56;100.00;98626.21;1636117;87;21033;-86
2022/04/11 06:26:17;;;;;;;;;;;;;;;4.58;100.00;98629.56;1636893;87;24713;-86
2022/04/11 06:28:43;;;;;;;;;;;;;;;4.60;100.00;98626.91;1636470;87;20898;-86
2022/04/11 06:31:10;;;;;;;;;;;;;;;4.62;100.00;98625.11;1637885;87;24944;-85
2022/04/11 06:33:36;;;;;;;;;;;;;;;4.69;100.00;98622.63;1636459;87;22027;-86
2022/04/11 06:36:03;;;;;;;;;;;;;;;4.78;100.00;98624.84;1636045;86;26319;-86
2022/04/11 06:38:29;;;;;;;;;;;;;;;4.90;100.00;98620.42;1637807;87;24563;-82
2022/04/11 06:40:55;;;;;;;;;;;;;;;5.08;100.00;98623.92;1644454;85;20277;-86
2022/04/11 06:43:21;;;;;;;;;;;;;;;5.20;100.00;98627.27;1613741;86;25804;-87
2022/04/11 06:45:47;;;;;;;;;;;;;;;5.30;100.00;98627.69;1640285;86;22043;-87
2022/04/11 06:48:14;;;;;;;;;;;;;;;5.38;100.00;98623.01;1638437;86;25961;-87
2022/04/11 06:50:40;;;;;;;;;;;;;;;5.47;100.00;98623.42;1635375;86;24398;-87
2022/04/11 06:53:06;;;;;;;;;;;;;;;5.52;100.00;98623.20;1648773;85;20230;-87
2022/04/11 06:55:32;;;;;;;;;;;;;;;5.59;100.00;98618.56;1646861;86;25013;-85
2022/04/11 06:57:59;;;;;;;;;;;;;;;5.61;100.00;98621.95;1638877;86;22124;-85
2022/04/11 07:00:25;;;;;;;;;;;;;;;5.66;100.00;98618.67;1642811;86;26080;-85
2022/04/11 07:02:51;;;;;;;;;;;;;;;5.75;100.00;98616.48;1641920;86;24528;-85
2022/04/11 07:05:17;;;;;;;;;;;;;;;5.87;100.00;98625.48;1636773;86;20431;-85
2022/04/11 07:07:43;;;;;;;;;;;;;;;5.91;100.00;98624.86;1637133;86;24971;-85
2022/04/11 07:10:09;;;;;;;;;;;;;;;5.93;100.00;98622.59;1644571;86;20902;-85
2022/04/11 07:12:39;;;;;;;;;;;;;;;5.99;100.00;98624.90;1642230;85;26917;-87
2022/04/11 07:15:06;;;;;;;;;;;;;;;6.05;100.00;98618.11;1642260;86;24559;-87
2022/04/11 07:17:34;;;;;;;;;;;;;;;6.11;100.00;98620.38;1642167;86;20359;-87
2022/04/11 07:20:01;;;;;;;;;;;;;;;6.15;100.00;98626.29;1643002;86;25036;-87
2022/04/11 07:22:32;;;;;;;;;;;;;;;6.18;100.00;98623.52;1643193;86;22767;-87
2022/04/11 07:25:01;;;;;;;;;;;;;;;6.22;100.00;98625.05;1646648;86;26091;-87
2022/04/11 07:27:29;;;;;;;;;;;;;;;6.28;100.00;98625.59;1638391;86;24526;-86
2022/04/11 07:29:55;;;;;;;;;;;;;;;6.37;100.00;98623.47;1641736;86;20355;-86
2022/04/11 07:32:21;;;;;;;;;;;;;;;6.41;100.00;98625.84;1637053;86;20294;-83
2022/04/11 07:34:47;;;;;;;;;;;;;;;6.42;100.00;98635.32;1648099;86;20337;-83
2022/04/11 07:37:13;;;;;;;;;;;;;;;6.42;100.00;98634.02;1639942;86;26002;-84
2022/04/11 07:39:39;;;;;;;;;;;;;;;6.39;100.00;98640.66;1638918;86;20494;-83
2022/04/11 07:42:06;;;;;;;;;;;;;;;6.36;100.00;98642.13;1637256;87;20861;-86
2022/04/11 07:44:38;;;;;;;;;;;;;;;6.33;100.00;98644.86;1636400;87;25056;-85
2022/04/11 07:47:04;;;;;;;;;;;;;;;6.40;100.00;98642.34;1638796;87;22070;-85
2022/04/11 07:49:31;;;;;;;;;;;;;;;6.53;100.00;98642.58;1639583;87;21059;-85
2022/04/11 07:51:57;;;;;;;;;;;;;;;6.60;100.00;98638.28;1635348;87;24567;-85
2022/04/11 07:54:23;;;;;;;;;;;;;;;6.67;100.00;98637.52;1638494;87;20217;-85
2022/04/11 07:56:53;;;;;;;;;;;;;;;6.70;100.00;98646.48;1639834;87;25642;-85
2022/04/11 07:59:19;;;;;;;;;;;;;;;6.66;100.00;98646.23;1638826;87;22059;-87
2022/04/11 08:01:48;;;;;;;;;;;;;;;6.60;100.00;98644.78;1636806;87;21036;-87
2022/04/11 08:04:14;;;;;;;;;;;;;;;6.63;100.00;98642.50;1636633;87;24597;-87
2022/04/11 08:06:40;;;;;;;;;;;;;;;6.69;100.00;98642.19;1636664;87;20865;-85
2022/04/11 08:09:06;;;;;;;;;;;;;;;6.78;100.00;98644.77;1638834;87;25014;-85
2022/04/11 08:11:32;;;;;;;;;;;;;;;6.91;100.00;98636.27;1638847;87;21952;-83
2022/04/11 08:13:58;;;;;;;;;;;;;;;7.01;100.00;98637.92;1636350;87;21136;-86
2022/04/11 08:16:24;;;;;;;;;;;;;;;7.05;100.00;98642.04;1638803;87;24475;-85
2022/04/11 08:18:50;;;;;;;;;;;;;;;7.06;100.00;98640.67;1637368;87;20215;-85
2022/04/11 08:21:16;;;;;;;;;;;;;;;7.04;100.00;98638.59;1636810;87;20202;-85
2022/04/11 08:23:42;;;;;;;;;;;;;;;7.09;100.00;98635.29;1638826;87;22064;-85
2022/04/11 08:26:08;;;;;;;;;;;;;;;7.18;100.00;98636.59;1636596;87;20932;-83
2022/04/11 08:28:34;;;;;;;;;;;;;;;7.28;100.00;98633.88;1635845;87;20276;-83
2022/04/11 08:31:00;;;;;;;;;;;;;;;7.26;100.00;98641.37;1638439;87;20291;-83
2022/04/11 08:33:26;;;;;;;;;;;;;;;7.17;100.00;98636.66;1637321;87;20296;-83
2022/04/11 08:35:52;;;;;;;;;;;;;;;7.09;100.00;98636.59;1638732;87;22142;-87
2022/04/11 08:38:18;;;;;;;;;;;;;;;7.04;100.00;98638.59;1637853;87;26080;-87
2022/04/11 08:40:47;;;;;;;;;;;;;;;7.00;100.00;98636.23;1633835;87;24490;-87
2022/04/11 08:43:14;;;;;;;;;;;;;;;6.93;100.00;98636.17;1635426;87;20303;-86
2022/04/11 08:45:40;;;;;;;;;;;;;;;6.89;100.00;98634.20;1635308;87;24979;-86
2022/04/11 08:48:07;;;;;;;;;;;;;;;6.93;100.00;98638.31;1635483;87;20247;-85
2022/04/11 08:50:36;;;;;;;;;;;;;;;6.94;100.00;98640.00;1635270;87;25990;-87
2022/04/11 08:53:02;;;;;;;;;;;;;;;6.92;100.00;98641.86;1633852;87;24636;-87
2022/04/11 08:55:29;;;;;;;;;;;;;;;6.87;100.00;98632.61;1635525;87;20440;-87
2022/04/11 08:57:57;;;;;;;;;;;;;;;6.91;100.00;98635.43;1634857;87;25102;-86
2022/04/11 09:00:23;;;;;;;;;;;;;;;6.94;100.00;98637.86;1635332;87;22160;-87
2022/04/11 09:02:49;;;;;;;;;;;;;;;6.99;100.00;98638.45;1635475;87;21188;-87
2022/04/11 09:05:19;;;;;;;;;;;;;;;7.08;100.00;98639.30;1635192;87;24415;-87
2022/04/11 09:07:57;;;;;;;;;;;;;;;7.22;100.00;98634.19;1635226;87;20214;-87
2022/04/11 09:10:24;;;;;;;;;;;;;;;7.34;100.00;98640.52;1635386;87;25155;-87
2022/04/11 09:12:52;;;;;;;;;;;;;;;7.44;100.00;98634.73;1635546;87;22075;-87
2022/04/11 09:15:19;;;;;;;;;;;;;;;7.55;100.00;98631.55;1634805;87;26064;-87
2022/04/11 09:17:46;;;;;;;;;;;;;;;7.77;100.00;98636.41;1635387;87;24515;-85
2022/04/11 09:20:14;;;;;;;;;;;;;;;7.97;100.00;98628.31;1635103;87;20606;-85
2022/04/11 09:22:40;;;;;;;;;;;;;;;8.10;100.00;98626.71;1635342;87;25093;-85
2022/04/11 09:25:10;;;;;;;;;;;;;;;8.06;100.00;98634.80;1635325;87;22036;-85
2022/04/11 09:27:36;;;;;;;;;;;;;;;7.91;100.00;98637.78;1635199;87;26076;-86
2022/04/11 09:30:04;;;;;;;;;;;;;;;7.76;100.00;98648.59;1635424;87;24525;-86
2022/04/11 09:32:30;;;;;;;;;;;;;;;7.71;100.00;98646.70;1632239;87;20223;-85
2022/04/11 09:34:56;;;;;;;;;;;;;;;7.64;100.00;98641.45;1635669;87;20751;-85
2022/04/11 09:37:22;;;;;;;;;;;;;;;7.62;100.00;98644.62;1635372;87;22010;-85
2022/04/11 09:40:00;;;;;;;;;;;;;;;7.53;100.00;98647.24;1636909;87;21073;-85
2022/04/11 09:42:30;;;;;;;;;;;;;;;7.56;100.00;98644.95;1624793;87;24502;-86
2022/04/11 09:45:00;;;;;;;;;;;;;;;7.64;100.00;98636.23;1636339;86;20395;-83
2022/04/11 09:47:28;;;;;;;;;;;;;;;7.73;100.00;98641.42;1625611;87;25894;-83
2022/04/11 09:49:54;;;;;;;;;;;;;;;7.82;100.00;98645.66;1634043;87;22001;-83
2022/04/11 09:52:20;;;;;;;;;;;;;;;7.99;100.00;98640.35;1630926;87;25972;-83
2022/04/11 09:54:47;;;;;;;;;;;;;;;8.08;100.00;98637.67;1618190;87;20917;-85
2022/04/11 09:57:14;;;;;;;;;;;;;;;8.17;100.00;98636.34;1622933;87;20588;-84
2022/04/11 09:59:41;;;;;;;;;;;;;;;8.18;100.00;98638.02;1633434;87;24989;-83
2022/04/11 10:02:10;;;;;;;;;;;;;;;8.16;100.00;98630.73;1631280;87;22088;-87
2022/04/11 10:04:38;;;;;;;;;;;;;;;8.08;100.00;98635.07;1629566;87;26509;-88
2022/04/11 10:07:04;;;;;;;;;;;;;;;7.95;100.00;98641.45;1631554;87;24589;-83
2022/04/11 10:09:30;;;;;;;;;;;;;;;7.84;100.00;98643.81;1632091;87;20249;-83
2022/04/11 10:11:57;;;;;;;;;;;;;;;7.83;99.96;98645.20;1623836;87;25745;-84
2022/04/11 10:14:28;;;;;;;;;;;;;;;7.82;99.73;98642.20;1618913;87;22126;-84
2022/04/11 10:16:53;;;;;;;;;;;;;;;7.81;99.47;98643.13;1630745;87;26013;-84
2022/04/11 10:19:29;;;;;;;;;;;;;;;7.80;99.31;98645.38;1622727;87;24585;-84
2022/04/11 10:22:06;;;;;;;;;;;;;;;7.79;99.22;98645.00;1635937;87;20159;-84
2022/04/11 10:24:33;;;;;;;;;;;;;;;7.87;99.21;98639.73;1619121;87;24891;-84
2022/04/11 10:27:19;;;;;;;;;;;;;;;7.96;99.30;98639.70;1628440;86;22614;-84
2022/04/11 10:29:46;;;;;;;;;;;;;;;7.98;99.22;98643.87;1613224;87;27030;-84
2022/04/11 10:32:13;;;;;;;;;;;;;;;7.97;99.02;98640.05;1594835;88;24599;-84
2022/04/11 10:35:10;;;;;;;;;;;;;;;7.93;98.82;98648.51;1627143;86;20273;-88
2022/04/11 10:37:41;;;;;;;;;;;;;;;7.87;98.58;98648.00;1631751;86;25659;-88
2022/04/11 10:40:21;;;;;;;;;;;;;;;7.79;98.31;98647.60;1634038;86;22072;-86
2022/04/11 10:43:05;;;;;;;;;;;;;;;7.69;98.13;98644.64;1615891;88;26325;-87
2022/04/11 10:45:34;;;;;;;;;;;;;;;7.58;97.95;98641.81;1640022;87;24582;-86
2022/04/11 10:48:01;;;;;;;;;;;;;;;7.63;98.16;98640.25;1626651;87;20228;-84
2022/04/11 10:50:29;;;;;;;;;;;;;;;7.61;98.46;98629.91;1627178;87;24954;-84
2022/04/11 10:52:56;;;;;;;;;;;;;;;7.82;99.00;98627.42;1623180;87;22116;-87
2022/04/11 10:55:23;;;;;;;;;;;;;;;8.08;99.76;98619.43;1616712;87;26884;-84
2022/04/11 10:57:51;;;;;;;;;;;;;;;8.27;100.00;98627.05;1621891;87;24647;-84
2022/04/11 11:00:19;;;;;;;;;;;;;;;8.42;100.00;98623.59;1622240;87;20305;-83
2022/04/11 11:02:53;;;;;;;;;;;;;;;8.60;100.00;98618.61;1628418;87;25667;-83
2022/04/11 11:05:27;;;;;;;;;;;;;;;8.57;100.00;98618.77;1624645;87;22879;-86
2022/04/11 11:08:10;;;;;;;;;;;;;;;8.66;100.00;98618.25;1630512;87;27318;-86
2022/04/11 11:10:42;;;;;;;;;;;;;;;8.67;100.00;98620.41;1622745;87;24458;-86
2022/04/11 11:13:26;;;;;;;;;;;;;;;8.56;100.00;98614.98;1633013;88;20323;-86
2022/04/11 11:15:52;;;;;;;;;;;;;;;8.37;100.00;98616.50;1632481;88;25174;-86
2022/04/11 11:18:20;;;;;;;;;;;;;;;8.08;99.42;98618.12;1632958;87;22241;-83
2022/04/11 11:20:56;;;;;;;;;;;;;;;7.93;98.71;98624.21;1632697;86;25981;-83
2022/04/11 11:23:31;;;;;;;;;;;;;;;7.83;98.28;98621.29;1632591;88;25121;-83
2022/04/11 11:26:08;;;;;;;;;;;;;;;7.69;97.86;98617.28;1632903;87;20240;-87
2022/04/11 11:28:34;;;;;;;;;;;;;;;7.61;97.73;98619.49;1631909;88;25590;-86
2022/04/11 11:31:00;;;;;;;;;;;;;;;7.49;97.70;98615.78;1632494;88;20831;-86
2022/04/11 11:33:27;;;;;;;;;;;;;;;7.42;97.69;98610.98;1631910;88;20946;-83
2022/04/11 11:35:54;;;;;;;;;;;;;;;7.43;97.91;98608.77;1631973;88;24460;-82
2022/04/11 11:38:22;;;;;;;;;;;;;;;7.52;98.30;98603.92;1648720;86;20281;-85
2022/04/11 11:40:53;;;;;;;;;;;;;;;7.69;98.81;98602.96;1614047;87;24989;-86
2022/04/11 11:43:20;;;;;;;;;;;;;;;7.94;99.50;98596.77;1605073;88;21996;-86
2022/04/11 11:45:47;;;;;;;;;;;;;;;8.19;100.00;98591.45;1608989;88;26060;-86
2022/04/11 11:48:26;;;;;;;;;;;;;;;8.37;100.00;98596.94;1608416;88;24588;-86
2022/04/11 11:50:55;;;;;;;;;;;;;;;8.53;100.00;98588.59;1612832;88;20228;-85
2022/04/11 11:53:21;;;;;;;;;;;;;;;8.70;100.00;98581.91;1608567;87;25144;-86
2022/04/11 11:55:55;;;;;;;;;;;;;;;8.81;100.00;98572.97;1594856;89;22078;-86
2022/04/11 11:58:22;;;;;;;;;;;;;;;8.65;100.00;98575.30;1590980;90;26063;-87
2022/04/11 12:00:49;;;;;;;;;;;;;;;8.42;100.00;98576.65;1596591;89;24539;-87
2022/04/11 12:06:01;;;;;;;;;;;;;;;8.36;100.00;98589.58;1618537;88;25776;-87
2022/04/11 12:08:30;;;;;;;;;;;;;;;8.24;100.00;98590.25;1620718;88;22036;-87
2022/04/11 12:10:55;;;;;;;;;;;;;;;8.21;100.00;98588.30;1618622;88;26104;-87
2022/04/11 12:13:30;;;;;;;;;;;;;;;8.25;100.00;98584.58;1611947;88;20188;-87
2022/04/11 12:16:10;;;;;;;;;;;;;;;8.37;100.00;98577.39;1597171;88;20511;-87
2022/04/11 12:18:48;;;;;;;;;;;;;;;8.42;100.00;98576.65;1627176;88;25022;-84
2022/04/11 12:21:15;;;;;;;;;;;;;;;8.52;100.00;98567.34;1622064;88;22069;-87
2022/04/11 12:23:48;;;;;;;;;;;;;;;8.70;100.00;98559.73;1589445;90;25985;-84
2022/04/11 12:26:25;;;;;;;;;;;;;;;8.89;100.00;98562.55;1607156;88;25479;-86
2022/04/11 12:28:53;;;;;;;;;;;;;;;8.94;100.00;98557.42;1611847;88;20271;-87
2022/04/11 12:31:19;;;;;;;;;;;;;;;8.97;100.00;98562.91;1611657;88;25586;-88
2022/04/11 12:33:52;;;;;;;;;;;;;;;8.92;100.00;98564.49;1591046;90;22118;-88
2022/04/11 12:36:27;;;;;;;;;;;;;;;8.88;99.80;98570.84;1590941;90;26177;-88
2022/04/11 12:38:59;;;;;;;;;;;;;;;8.97;99.72;98565.05;1625332;88;24477;-87
2022/04/11 12:41:29;;;;;;;;;;;;;;;9.16;99.74;98562.16;1634286;85;20492;-88
2022/04/11 12:44:03;;;;;;;;;;;;;;;9.48;100.00;98548.38;1644975;86;25107;-88
2022/04/11 12:46:32;;;;;;;;;;;;;;;9.72;100.00;98540.26;1645655;86;21620;-88
2022/04/11 12:48:58;;;;;;;;;;;;;;;9.85;100.00;98537.70;1646121;86;26077;-86
2022/04/11 12:51:28;;;;;;;;;;;;;;;9.90;100.00;98543.00;1649248;86;24504;-85
2022/04/11 12:54:07;;;;;;;;;;;;;;;9.90;99.63;98535.62;1649035;86;20298;-87